Time;durP1;ratioP1;P1;durP2;ratioP2;P2;SDS_P1;SDS_P2;PMS_P1;PMS_P2;Temp;Humidity;BMP_temperature;BMP_pressure;BME280_temperature;BME280_humidity;BME280_pressure;Samples;Min_cycle;Max_cycle;Signal;HPM_P1;HPM_P2
2023/07/24 00:00:04;;;;;;;3.53;2.67;;;;;;;16.77;100.00;99858.56;4960256;28;20047;-82
2023/07/24 00:02:31;;;;;;;3.50;3.08;;;;;;;16.77;100.00;99858.56;4937437;28;20039;-82
2023/07/24 00:04:58;;;;;;;4.18;3.22;;;;;;;16.78;100.00;99858.47;4939312;28;20046;-83
2023/07/24 00:07:25;;;;;;;3.97;2.83;;;;;;;16.78;100.00;99849.59;4978685;28;20030;-81
2023/07/24 00:09:52;;;;;;;3.90;2.80;;;;;;;16.81;100.00;99852.06;4988262;28;20038;-81
2023/07/24 00:12:19;;;;;;;3.67;2.75;;;;;;;16.81;100.00;99842.25;4950064;28;20069;-82
2023/07/24 00:14:45;;;;;;;4.43;2.88;;;;;;;16.77;100.00;99848.75;4977332;28;20489;-82
2023/07/24 00:17:12;;;;;;;3.88;3.10;;;;;;;16.79;100.00;99844.16;4964719;28;20038;-82
2023/07/24 00:19:39;;;;;;;5.90;3.55;;;;;;;16.79;100.00;99837.97;4997949;28;20051;-81
2023/07/24 00:22:05;;;;;;;4.15;2.97;;;;;;;16.82;100.00;99837.81;4943743;28;20048;-82
2023/07/24 00:24:32;;;;;;;3.75;2.65;;;;;;;16.80;100.00;99837.88;4995095;28;20043;-82
2023/07/24 00:26:59;;;;;;;4.35;2.90;;;;;;;16.82;100.00;99836.00;4981382;28;20123;-82
2023/07/24 00:29:26;;;;;;;5.75;3.53;;;;;;;16.85;100.00;99835.81;4999740;28;20039;-82
2023/07/24 00:31:52;;;;;;;3.83;2.72;;;;;;;16.86;100.00;99834.84;4938658;28;20046;-83
2023/07/24 00:34:19;;;;;;;4.68;3.08;;;;;;;16.88;100.00;99821.41;5005045;28;20041;-82
2023/07/24 00:36:46;;;;;;;4.20;2.90;;;;;;;16.88;100.00;99829.41;4939560;28;20047;-82
2023/07/24 00:39:14;;;;;;;4.72;3.13;;;;;;;16.91;100.00;99821.25;4956326;28;20448;-82
2023/07/24 00:41:41;;;;;;;3.67;2.95;;;;;;;16.94;100.00;99820.19;4951868;28;20042;-82
2023/07/24 00:44:08;;;;;;;5.32;3.25;;;;;;;16.98;100.00;99816.38;4984096;28;20042;-82
2023/07/24 00:46:35;;;;;;;3.35;2.95;;;;;;;16.95;100.00;99816.56;4933520;28;20039;-82
2023/07/24 00:49:04;;;;;;;3.80;3.30;;;;;;;16.96;100.00;99815.63;4972060;28;20428;-82
2023/07/24 00:51:31;;;;;;;4.65;2.72;;;;;;;16.96;100.00;99810.28;4935109;28;20046;-82
2023/07/24 00:54:01;;;;;;;5.00;3.10;;;;;;;17.02;100.00;99805.44;4961433;28;21698;-83
2023/07/24 00:56:27;;;;;;;7.25;3.15;;;;;;;17.07;100.00;99811.38;4965571;28;20035;-82
2023/07/24 00:58:58;;;;;;;5.75;3.30;;;;;;;17.09;100.00;99809.47;4976506;28;20400;-82
2023/07/24 01:01:25;;;;;;;5.07;3.33;;;;;;;17.14;100.00;99810.03;4945680;28;20130;-82
2023/07/24 01:03:52;;;;;;;5.88;3.22;;;;;;;17.16;100.00;99808.16;4967303;28;20043;-82
2023/07/24 01:06:19;;;;;;;3.97;2.90;;;;;;;17.12;100.00;99803.06;4967468;28;20035;-82
2023/07/24 01:08:45;;;;;;;5.13;3.30;;;;;;;17.17;100.00;99798.31;4964434;28;20130;-83
2023/07/24 01:11:19;;;;;;;4.90;3.15;;;;;;;17.14;100.00;99795.81;4950138;28;21841;-83
2023/07/24 01:13:58;;;;;;;4.10;2.95;;;;;;;17.19;100.00;99791.06;4970309;28;20054;-83
2023/07/24 01:16:32;;;;;;;5.88;3.15;;;;;;;17.15;100.00;99795.75;4930565;28;20039;-83
2023/07/24 01:19:00;;;;;;;4.13;3.08;;;;;;;17.09;100.00;99789.94;4947572;28;20121;-83
2023/07/24 01:21:42;;;;;;;5.68;3.35;;;;;;;17.10;100.00;99781.81;4958927;28;20057;-83
2023/07/24 01:24:24;;;;;;;4.88;3.03;;;;;;;17.12;100.00;99781.72;4949851;28;20133;-79
2023/07/24 01:26:51;;;;;;;3.55;2.95;;;;;;;17.06;100.00;99782.09;4977283;28;20038;-79
2023/07/24 01:29:18;;;;;;;4.32;3.25;;;;;;;17.00;100.00;99788.69;4988366;28;20045;-79
2023/07/24 01:31:45;;;;;;;5.75;3.58;;;;;;;16.99;100.00;99778.97;4974045;28;21339;-79
2023/07/24 01:34:12;;;;;;;3.45;2.80;;;;;;;16.95;100.00;99781.91;4988114;28;20145;-79
2023/07/24 01:36:38;;;;;;;4.03;3.20;;;;;;;16.92;100.00;99774.94;4982763;28;20072;-79
2023/07/24 01:39:06;;;;;;;4.68;3.25;;;;;;;16.99;100.00;99773.63;4966368;28;20043;-79
2023/07/24 01:41:33;;;;;;;3.55;3.20;;;;;;;16.98;100.00;99766.53;4987629;28;20104;-79
2023/07/24 01:44:00;;;;;;;4.10;2.88;;;;;;;16.94;100.00;99765.03;4982555;28;20131;-80
2023/07/24 01:46:27;;;;;;;4.43;3.13;;;;;;;16.96;100.00;99760.44;4961921;28;20237;-79
2023/07/24 01:48:54;;;;;;;4.05;3.47;;;;;;;16.98;100.00;99755.88;5000814;28;20076;-80
2023/07/24 01:51:21;;;;;;;3.15;2.70;;;;;;;16.99;100.00;99740.75;4998439;28;20043;-79
2023/07/24 01:53:47;;;;;;;3.92;2.88;;;;;;;16.99;100.00;99759.44;5002074;28;20555;-79
2023/07/24 01:56:14;;;;;;;3.35;2.53;;;;;;;16.99;100.00;99754.09;4958859;28;20039;-79
2023/07/24 01:58:41;;;;;;;3.97;3.20;;;;;;;17.04;100.00;99739.50;4969656;28;20414;-79
2023/07/24 02:01:07;;;;;;;4.47;3.13;;;;;;;17.14;100.00;99740.63;4963307;28;20077;-79
2023/07/24 02:03:34;;;;;;;4.13;3.22;;;;;;;17.10;100.00;99743.59;4972457;28;20051;-80
2023/07/24 02:06:01;;;;;;;5.15;2.92;;;;;;;17.14;100.00;99747.78;4938810;28;20042;-79
2023/07/24 02:08:28;;;;;;;5.85;3.30;;;;;;;17.11;100.00;99738.16;4995500;28;20035;-79
2023/07/24 02:10:54;;;;;;;3.60;2.90;;;;;;;17.13;100.00;99738.91;4955612;28;20053;-80
2023/07/24 02:13:21;;;;;;;4.85;3.45;;;;;;;17.23;100.00;99736.53;4991024;28;20482;-80
2023/07/24 02:15:48;;;;;;;4.32;3.20;;;;;;;17.18;100.00;99738.66;5018914;28;20089;-79
2023/07/24 02:18:14;;;;;;;4.10;2.40;;;;;;;17.20;100.00;99738.53;4976122;28;20213;-79
2023/07/24 02:20:41;;;;;;;4.57;3.15;;;;;;;17.17;100.00;99745.78;4963477;28;20038;-79
2023/07/24 02:23:09;;;;;;;4.47;2.88;;;;;;;17.25;100.00;99737.31;4938651;28;20049;-80
2023/07/24 02:25:36;;;;;;;5.30;2.90;;;;;;;17.23;100.00;99735.66;4962693;28;20051;-80
2023/07/24 02:28:03;;;;;;;5.78;3.40;;;;;;;17.24;100.00;99729.41;4934890;28;20151;-79
2023/07/24 02:30:29;;;;;;;5.38;3.15;;;;;;;17.26;100.00;99739.03;4956970;28;20046;-79
2023/07/24 02:32:56;;;;;;;4.47;2.97;;;;;;;17.21;100.00;99746.44;4954391;28;20118;-79
2023/07/24 02:35:23;;;;;;;4.45;3.22;;;;;;;17.23;100.00;99743.69;4975584;28;20126;-80
2023/07/24 02:37:50;;;;;;;3.50;2.70;;;;;;;17.16;100.00;99744.09;4960746;28;20047;-79
2023/07/24 02:40:17;;;;;;;4.25;3.17;;;;;;;17.15;100.00;99738.81;4984438;28;20043;-81
2023/07/24 02:42:44;;;;;;;3.75;2.83;;;;;;;17.15;100.00;99742.38;5039865;28;20116;-81
2023/07/24 02:45:10;;;;;;;3.72;2.92;;;;;;;17.20;100.00;99746.56;4972941;28;20065;-80
2023/07/24 02:47:37;;;;;;;5.18;3.00;;;;;;;17.20;100.00;99735.88;4955393;28;20046;-81
2023/07/24 02:50:04;;;;;;;3.88;2.70;;;;;;;17.17;100.00;99739.59;4969055;28;20050;-81
2023/07/24 02:52:31;;;;;;;4.50;3.00;;;;;;;17.20;100.00;99736.72;4964772;28;20130;-80
2023/07/24 02:54:58;;;;;;;3.40;2.60;;;;;;;17.20;100.00;99742.06;4961359;28;20046;-80
2023/07/24 02:57:24;;;;;;;4.82;3.08;;;;;;;17.21;100.00;99734.91;4958636;28;20041;-80
2023/07/24 02:59:51;;;;;;;3.38;2.55;;;;;;;17.22;100.00;99741.97;4946049;28;20051;-80
2023/07/24 03:02:18;;;;;;;3.40;2.88;;;;;;;17.22;100.00;99748.16;4977470;28;20043;-80
2023/07/24 03:04:44;;;;;;;3.08;2.60;;;;;;;17.26;100.00;99756.84;4969510;28;20043;-80
2023/07/24 03:07:11;;;;;;;4.80;2.60;;;;;;;17.26;100.00;99748.84;4950293;28;20047;-80
2023/07/24 03:09:38;;;;;;;3.50;2.75;;;;;;;17.27;100.00;99748.75;4965526;28;20455;-80
2023/07/24 03:12:05;;;;;;;3.95;2.47;;;;;;;17.29;100.00;99753.97;4966140;28;20047;-80
2023/07/24 03:14:31;;;;;;;3.92;2.83;;;;;;;17.30;100.00;99751.22;4968219;28;20043;-80
2023/07/24 03:16:58;;;;;;;5.40;2.67;;;;;;;17.32;100.00;99748.44;4955207;28;20047;-81
2023/07/24 03:19:28;;;;;;;3.83;2.47;;;;;;;17.32;100.00;99740.44;5001378;28;20137;-80
2023/07/24 03:21:55;;;;;;;3.35;2.40;;;;;;;17.33;100.00;99745.69;4973822;28;20138;-80
2023/07/24 03:24:22;;;;;;;3.83;2.60;;;;;;;17.34;100.00;99752.75;4989391;28;20097;-80
2023/07/24 03:26:48;;;;;;;5.13;2.58;;;;;;;17.35;100.00;99754.47;4960932;28;20061;-80
2023/07/24 03:29:15;;;;;;;3.90;2.30;;;;;;;17.36;100.00;99752.66;4962968;28;20039;-80
2023/07/24 03:31:42;;;;;;;4.05;2.55;;;;;;;17.36;100.00;99748.16;4976958;28;20046;-80
2023/07/24 03:34:08;;;;;;;3.55;2.90;;;;;;;17.38;100.00;99753.41;4986472;28;20043;-79
2023/07/24 03:36:35;;;;;;;3.55;2.40;;;;;;;17.49;100.00;99750.03;4962679;28;20066;-79
2023/07/24 03:39:02;;;;;;;3.17;2.65;;;;;;;17.47;100.00;99741.28;4953223;28;20142;-79
2023/07/24 03:41:29;;;;;;;3.97;3.00;;;;;;;17.48;100.00;99754.53;4961807;28;20129;-78
2023/07/24 03:43:55;;;;;;;4.45;2.50;;;;;;;17.55;100.00;99749.66;4975671;28;20484;-78
2023/07/24 03:46:22;;;;;;;4.63;2.78;;;;;;;17.57;100.00;99747.75;4973956;28;20069;-78
2023/07/24 03:48:50;;;;;;;4.30;2.40;;;;;;;17.64;100.00;99754.41;4979861;28;20156;-79
2023/07/24 03:51:17;;;;;;;4.65;3.08;;;;;;;17.69;100.00;99760.34;4970293;28;20043;-78
2023/07/24 03:53:44;;;;;;;4.82;2.80;;;;;;;17.71;100.00;99766.47;4957423;28;20050;-79
2023/07/24 03:56:10;;;;;;;4.20;2.67;;;;;;;17.79;100.00;99765.97;4938919;28;20042;-80
2023/07/24 03:58:38;;;;;;;3.20;2.40;;;;;;;17.81;100.00;99766.72;4982853;28;20543;-79
2023/07/24 04:01:06;;;;;;;3.42;2.53;;;;;;;17.80;100.00;99765.00;4996460;28;20071;-79
2023/07/24 04:03:33;;;;;;;3.78;3.20;;;;;;;17.73;100.00;99769.88;4943704;28;20814;-79
2023/07/24 04:05:59;;;;;;;3.67;2.30;;;;;;;17.67;100.00;99771.13;4969404;28;20043;-79
2023/07/24 04:08:26;;;;;;;5.32;2.88;;;;;;;17.69;100.00;99768.34;4973662;28;20072;-79
2023/07/24 04:10:53;;;;;;;4.22;2.60;;;;;;;17.71;100.00;99767.31;4939135;28;20039;-81
2023/07/24 04:13:20;;;;;;;4.13;2.40;;;;;;;17.65;100.00;99764.16;4951551;28;20050;-81
2023/07/24 04:15:47;;;;;;;6.10;2.80;;;;;;;17.64;100.00;99767.78;4993132;28;20256;-81
2023/07/24 04:18:14;;;;;;;3.85;2.33;;;;;;;17.62;100.00;99769.69;4951364;28;20039;-80
2023/07/24 04:20:41;;;;;;;4.68;3.38;;;;;;;17.64;100.00;99768.63;4967055;28;20043;-81
2023/07/24 04:23:07;;;;;;;4.72;3.00;;;;;;;17.67;100.00;99778.28;4979494;28;20055;-80
2023/07/24 04:25:34;;;;;;;4.13;2.45;;;;;;;17.68;100.00;99777.31;4981334;28;20126;-81
2023/07/24 04:28:01;;;;;;;3.63;2.60;;;;;;;17.70;100.00;99775.44;4954666;28;20114;-80
2023/07/24 04:30:27;;;;;;;3.97;2.35;;;;;;;17.75;100.00;99775.16;4981494;28;20079;-79
2023/07/24 04:32:54;;;;;;;3.03;2.33;;;;;;;17.71;100.00;99783.34;4975499;28;20497;-80
2023/07/24 04:35:21;;;;;;;5.80;2.95;;;;;;;17.78;100.00;99788.31;4970287;28;20046;-81
2023/07/24 04:37:48;;;;;;;5.55;3.03;;;;;;;17.72;100.00;99794.88;4933037;28;20141;-81
2023/07/24 04:40:14;;;;;;;4.95;3.15;;;;;;;17.71;100.00;99793.19;4977032;28;20488;-81
2023/07/24 04:42:41;;;;;;;4.30;2.55;;;;;;;17.65;100.00;99793.53;4958540;28;20063;-81
2023/07/24 04:45:08;;;;;;;4.47;2.70;;;;;;;17.57;100.00;99799.38;4977371;28;20050;-81
2023/07/24 04:47:36;;;;;;;5.75;2.95;;;;;;;17.44;100.00;99796.59;4964111;28;20038;-80
2023/07/24 04:50:04;;;;;;;4.43;2.80;;;;;;;17.43;100.00;99788.69;4978447;28;20030;-80
2023/07/24 04:52:31;;;;;;;4.40;3.15;;;;;;;17.42;100.00;99789.66;4952138;28;20554;-79
2023/07/24 04:54:57;;;;;;;4.00;2.47;;;;;;;17.36;100.00;99793.56;5000542;28;20089;-80
2023/07/24 04:57:24;;;;;;;4.03;2.90;;;;;;;17.28;100.00;99787.84;4981675;28;20043;-81
2023/07/24 04:59:51;;;;;;;4.35;2.70;;;;;;;17.29;100.00;99778.88;4979134;28;20393;-80
2023/07/24 05:02:17;;;;;;;4.55;2.92;;;;;;;17.34;100.00;99775.94;4946756;28;20086;-80
2023/07/24 05:04:44;;;;;;;3.42;2.50;;;;;;;17.39;100.00;99774.66;4944740;28;20069;-81
2023/07/24 05:07:11;;;;;;;4.80;2.63;;;;;;;17.33;100.00;99769.72;4960686;28;20566;-81
2023/07/24 05:09:39;;;;;;;3.75;2.50;;;;;;;17.33;100.00;99766.22;4981064;28;20480;-80
2023/07/24 05:12:06;;;;;;;4.13;2.70;;;;;;;17.39;100.00;99763.97;4980690;28;20130;-80
2023/07/24 05:14:33;;;;;;;3.83;2.60;;;;;;;17.39;100.00;99750.63;4981276;28;20067;-79
2023/07/24 05:16:59;;;;;;;3.53;2.95;;;;;;;17.37;100.00;99752.56;4983946;28;20050;-79
2023/07/24 05:19:26;;;;;;;3.95;2.60;;;;;;;17.45;100.00;99752.94;4976007;28;20043;-79
2023/07/24 05:21:53;;;;;;;4.50;2.78;;;;;;;17.44;100.00;99753.03;4951599;28;20034;-79
2023/07/24 05:24:20;;;;;;;4.25;2.83;;;;;;;17.44;100.00;99753.03;4966095;28;20443;-79
2023/07/24 05:26:46;;;;;;;4.20;2.65;;;;;;;17.45;100.00;99752.06;4996275;28;20071;-80
2023/07/24 05:29:13;;;;;;;3.20;2.47;;;;;;;17.69;100.00;99741.63;4964059;28;20038;-80
2023/07/24 05:31:40;;;;;;;3.88;2.58;;;;;;;17.82;100.00;99745.25;4969587;28;20046;-80
2023/07/24 05:34:06;;;;;;;5.03;2.72;;;;;;;17.80;100.00;99743.63;4968072;28;20039;-81
2023/07/24 05:36:33;;;;;;;3.75;2.80;;;;;;;17.87;100.00;99732.47;4949052;28;20035;-80
2023/07/24 05:39:00;;;;;;;4.68;2.42;;;;;;;18.22;100.00;99729.28;4937482;28;20045;-80
2023/07/24 05:41:26;;;;;;;5.18;2.78;;;;;;;18.71;100.00;99723.31;4998674;28;20040;-80
2023/07/24 05:43:53;;;;;;;4.40;2.75;;;;;;;19.28;100.00;99725.53;4970488;28;20043;-81
2023/07/24 05:46:20;;;;;;;3.85;2.50;;;;;;;19.68;100.00;99718.22;4950404;28;20039;-81
2023/07/24 05:48:46;;;;;;;3.65;2.25;;;;;;;20.67;100.00;99716.09;4970390;28;20569;-80
2023/07/24 05:51:13;;;;;;;3.35;2.35;;;;;;;21.16;100.00;99722.13;4950054;28;20073;-80
2023/07/24 05:53:40;;;;;;;3.00;2.38;;;;;;;21.21;100.00;99712.75;4966488;28;20088;-79
2023/07/24 05:56:07;;;;;;;4.60;2.90;;;;;;;21.07;100.00;99710.28;4952999;28;20525;-80
2023/07/24 05:58:34;;;;;;;5.75;3.10;;;;;;;20.89;100.00;99703.69;4953922;28;20053;-81
2023/07/24 06:01:01;;;;;;;3.50;2.55;;;;;;;20.80;100.00;99706.13;4969443;28;20130;-82
2023/07/24 06:03:28;;;;;;;4.78;2.90;;;;;;;21.28;100.00;99697.03;5008600;28;20043;-81
2023/07/24 06:05:55;;;;;;;2.63;2.38;;;;;;;22.35;100.00;99691.75;4933337;28;20047;-82
2023/07/24 06:08:23;;;;;;;3.38;2.38;;;;;;;23.56;93.74;99690.16;4953634;28;20042;-82
2023/07/24 06:10:50;;;;;;;2.88;2.35;;;;;;;24.34;86.17;99693.84;4949851;28;20046;-82
2023/07/24 06:13:18;;;;;;;2.40;2.20;;;;;;;24.71;82.99;99687.69;4963267;28;20058;-81
2023/07/24 06:15:47;;;;;;;3.70;2.30;;;;;;;24.95;82.15;99687.19;4966198;28;20103;-81
2023/07/24 06:18:14;;;;;;;3.50;2.50;;;;;;;25.08;80.94;99684.22;4981024;28;20035;-80
2023/07/24 06:20:41;;;;;;;2.78;1.85;;;;;;;24.73;81.64;99693.81;4985176;28;20051;-80
2023/07/24 06:23:07;;;;;;;2.58;2.25;;;;;;;24.11;84.52;99692.38;4977241;28;20044;-80
2023/07/24 06:25:34;;;;;;;5.22;2.45;;;;;;;23.43;88.02;99684.13;4949770;28;20047;-82
2023/07/24 06:28:01;;;;;;;3.53;2.33;;;;;;;23.03;93.78;99689.50;4940538;28;20034;-81
2023/07/24 06:30:28;;;;;;;3.08;2.55;;;;;;;22.65;98.17;99682.03;4965067;28;20050;-82
2023/07/24 06:32:54;;;;;;;2.90;2.10;;;;;;;22.61;100.00;99685.97;4956385;28;20037;-81
2023/07/24 06:35:21;;;;;;;3.05;1.88;;;;;;;22.65;100.00;99685.59;4975159;28;20057;-81
2023/07/24 06:37:48;;;;;;;3.08;2.58;;;;;;;22.87;100.00;99681.94;5004951;28;20093;-81
2023/07/24 06:40:15;;;;;;;2.53;1.95;;;;;;;23.25;100.00;99680.41;4943960;28;20073;-81
2023/07/24 06:42:42;;;;;;;3.55;2.20;;;;;;;23.46;99.29;99678.50;4968826;28;20077;-81
2023/07/24 06:45:08;;;;;;;2.50;1.92;;;;;;;23.70;98.08;99683.53;4967592;28;20043;-80
2023/07/24 06:47:35;;;;;;;2.67;2.10;;;;;;;23.74;96.50;99679.56;4982208;28;20389;-79
2023/07/24 06:50:04;;;;;;;2.58;1.92;;;;;;;23.81;98.21;99682.56;4962824;28;20057;-80
2023/07/24 06:52:32;;;;;;;2.60;2.28;;;;;;;23.76;94.99;99664.09;4996810;28;20099;-79
2023/07/24 06:54:59;;;;;;;2.97;2.10;;;;;;;23.75;99.13;99656.16;4962803;28;20099;-79
2023/07/24 06:57:26;;;;;;;2.28;1.77;;;;;;;23.90;97.46;99660.16;4963904;28;20455;-79
2023/07/24 06:59:52;;;;;;;2.60;2.22;;;;;;;23.91;96.84;99664.56;4962969;28;20134;-79
2023/07/24 07:02:21;;;;;;;2.58;2.30;;;;;;;23.96;96.96;99659.56;4936109;28;20138;-79
2023/07/24 07:04:48;;;;;;;3.40;2.20;;;;;;;24.07;99.03;99664.84;4963553;28;20048;-79
2023/07/24 07:07:14;;;;;;;3.25;2.60;;;;;;;24.21;93.08;99660.84;4993183;28;20450;-80
2023/07/24 07:09:41;;;;;;;2.70;2.10;;;;;;;24.28;94.98;99659.28;4961892;28;20702;-79
2023/07/24 07:12:08;;;;;;;2.80;2.47;;;;;;;24.35;93.29;99657.75;4970471;28;20106;-79
2023/07/24 07:14:35;;;;;;;2.60;2.17;;;;;;;24.35;93.72;99665.84;4980116;28;20082;-80
2023/07/24 07:17:02;;;;;;;3.10;2.47;;;;;;;24.20;93.39;99666.38;4965022;28;20142;-80
2023/07/24 07:19:28;;;;;;;2.50;2.22;;;;;;;24.36;96.06;99664.84;4989097;28;20045;-80
2023/07/24 07:21:55;;;;;;;3.15;2.58;;;;;;;24.26;88.48;99668.53;4984452;28;20038;-81
2023/07/24 07:24:22;;;;;;;2.70;2.40;;;;;;;24.32;92.75;99662.59;4969332;28;20055;-80
2023/07/24 07:26:49;;;;;;;4.35;3.50;;;;;;;24.42;94.55;99658.03;4968395;28;20038;-80
2023/07/24 07:29:16;;;;;;;4.70;2.60;;;;;;;24.46;89.50;99650.47;4970899;28;20031;-80
2023/07/24 07:31:42;;;;;;;3.50;2.92;;;;;;;24.40;88.52;99647.38;4952328;28;20043;-80
2023/07/24 07:34:09;;;;;;;3.20;2.80;;;;;;;24.47;94.79;99638.69;5009334;28;20039;-81
2023/07/24 07:36:36;;;;;;;3.15;2.65;;;;;;;24.49;90.18;99653.75;4987474;28;20042;-80
2023/07/24 07:39:02;;;;;;;3.20;2.80;;;;;;;24.65;91.76;99648.63;4970484;28;20697;-80
2023/07/24 07:41:29;;;;;;;3.05;2.53;;;;;;;24.76;79.37;99638.63;5007660;28;20503;-80
2023/07/24 07:43:56;;;;;;;3.58;2.72;;;;;;;24.85;83.50;99648.56;4965046;28;20054;-81
2023/07/24 07:46:23;;;;;;;3.03;2.72;;;;;;;24.81;81.91;99636.34;4966531;28;20112;-80
2023/07/24 07:48:49;;;;;;;3.80;3.28;;;;;;;24.73;81.32;99645.19;5033232;28;20085;-80
2023/07/24 07:51:16;;;;;;;3.63;2.80;;;;;;;24.67;80.56;99640.34;4947090;28;20068;-82
2023/07/24 07:53:43;;;;;;;3.53;3.22;;;;;;;24.70;83.04;99646.31;4937308;28;20042;-79
2023/07/24 07:56:10;;;;;;;3.42;3.08;;;;;;;24.44;74.44;99639.84;4953532;28;20062;-81
2023/07/24 07:58:36;;;;;;;3.20;2.85;;;;;;;24.37;77.08;99649.50;4964105;28;20080;-80
2023/07/24 08:01:06;;;;;;;3.17;2.85;;;;;;;24.38;77.95;99643.09;4972268;28;20036;-80
2023/07/24 08:03:34;;;;;;;4.20;3.08;;;;;;;24.49;77.87;99642.97;4993534;28;20041;-79
2023/07/24 08:06:01;;;;;;;3.40;3.10;;;;;;;24.65;79.14;99637.81;4983415;28;20125;-78
2023/07/24 08:08:27;;;;;;;5.07;3.40;;;;;;;24.85;78.68;99641.28;4958732;28;20133;-80
2023/07/24 08:10:54;;;;;;;3.38;2.97;;;;;;;25.03;77.41;99646.81;4991094;28;20046;-78
2023/07/24 08:13:21;;;;;;;3.22;2.78;;;;;;;24.98;72.14;99651.78;4943524;28;20333;-78
2023/07/24 08:15:49;;;;;;;3.20;2.90;;;;;;;24.93;75.05;99646.81;4955056;28;20050;-78
2023/07/24 08:18:16;;;;;;;2.65;2.45;;;;;;;24.82;71.64;99651.56;4955618;28;20035;-79
2023/07/24 08:20:42;;;;;;;8.43;2.65;;;;;;;25.10;73.43;99642.50;4965160;28;20047;-79
2023/07/24 08:23:09;;;;;;;3.22;2.55;;;;;;;25.10;72.49;99647.06;4988892;28;20044;-79
2023/07/24 08:25:36;;;;;;;4.25;2.90;;;;;;;25.06;74.35;99645.69;4993819;28;20047;-78
2023/07/24 08:28:04;;;;;;;2.85;2.47;;;;;;;24.78;72.99;99640.19;4991102;28;20035;-80
2023/07/24 08:30:33;;;;;;;2.97;2.67;;;;;;;24.95;74.56;99643.97;4947894;28;20049;-80
2023/07/24 08:33:00;;;;;;;2.47;2.28;;;;;;;25.25;70.49;99645.59;4977263;28;20035;-78
2023/07/24 08:35:27;;;;;;;2.90;2.60;;;;;;;25.32;68.73;99641.28;4954183;28;20066;-78
2023/07/24 08:37:54;;;;;;;3.13;2.83;;;;;;;25.34;69.21;99627.59;4964087;28;20042;-79
2023/07/24 08:40:21;;;;;;;3.25;2.70;;;;;;;25.59;72.41;99628.72;4970288;28;20125;-80
2023/07/24 08:42:50;;;;;;;3.05;2.50;;;;;;;25.64;69.82;99629.09;5063286;28;20035;-80
2023/07/24 08:45:17;;;;;;;2.80;2.45;;;;;;;25.72;65.41;99619.25;4990441;28;20124;-80
2023/07/24 08:47:44;;;;;;;2.78;2.50;;;;;;;25.50;65.27;99614.28;4982931;28;20914;-80
2023/07/24 08:50:12;;;;;;;2.65;2.10;;;;;;;25.37;65.19;99621.88;4982877;28;20062;-80
2023/07/24 08:52:39;;;;;;;2.25;2.00;;;;;;;25.45;67.39;99624.69;4952153;28;20096;-78
2023/07/24 08:55:06;;;;;;;2.85;2.00;;;;;;;25.26;65.96;99618.38;4983116;28;20048;-79
2023/07/24 08:57:33;;;;;;;2.67;2.30;;;;;;;25.23;66.38;99621.41;4963616;28;20035;-79
2023/07/24 09:00:04;;;;;;;2.50;2.22;;;;;;;25.19;67.43;99616.44;4966485;28;20088;-80
2023/07/24 09:02:34;;;;;;;3.17;2.20;;;;;;;25.11;67.13;99610.94;4968849;28;20039;-79
2023/07/24 09:05:03;;;;;;;2.67;2.25;;;;;;;24.96;65.91;99603.28;5028661;28;20050;-78
2023/07/24 09:07:31;;;;;;;2.42;2.22;;;;;;;24.97;69.57;99590.59;4974385;28;20129;-80
2023/07/24 09:09:58;;;;;;;3.40;2.55;;;;;;;25.18;68.94;99577.75;4978355;28;20027;-79
2023/07/24 09:12:24;;;;;;;2.97;2.45;;;;;;;25.25;68.27;99572.59;4975618;28;20576;-80
2023/07/24 09:15:05;;;;;;;2.78;2.42;;;;;;;25.37;67.66;99563.25;4975814;28;20046;-79
2023/07/24 09:17:33;;;;;;;2.58;2.38;;;;;;;25.39;66.21;99547.75;4964145;28;20070;-81
2023/07/24 09:20:02;;;;;;;3.28;2.42;;;;;;;25.45;64.64;99546.25;4972401;28;20043;-79
2023/07/24 09:22:28;;;;;;;2.53;2.00;;;;;;;25.42;63.44;99552.00;4977223;28;20122;-80
2023/07/24 09:24:57;;;;;;;2.15;1.83;;;;;;;25.44;62.87;99547.25;4990256;28;20042;-79
2023/07/24 09:27:29;;;;;;;2.75;2.10;;;;;;;25.33;62.98;99551.06;5009674;28;20549;-79
2023/07/24 09:29:58;;;;;;;2.33;1.90;;;;;;;25.24;64.90;99552.81;4965013;28;20039;-78
2023/07/24 09:32:27;;;;;;;2.60;2.22;;;;;;;25.20;63.57;99553.25;5009362;28;20549;-79
2023/07/24 09:34:54;;;;;;;2.20;1.90;;;;;;;25.46;63.78;99553.38;4973500;28;20049;-78
2023/07/24 09:37:25;;;;;;;2.80;2.50;;;;;;;25.47;62.34;99555.06;4963891;28;20260;-80
2023/07/24 09:39:52;;;;;;;3.30;2.10;;;;;;;25.48;62.75;99560.34;4989538;28;20133;-81
2023/07/24 09:42:34;;;;;;;2.45;2.00;;;;;;;25.66;61.50;99546.81;4975797;28;20043;-80
2023/07/24 09:45:02;;;;;;;2.40;2.20;;;;;;;25.88;61.14;99539.25;4985769;28;20108;-81
2023/07/24 09:47:32;;;;;;;2.13;1.77;;;;;;;26.09;58.60;99537.91;4975700;28;20038;-82
2023/07/24 09:50:19;;;;;;;2.13;1.70;;;;;;;26.35;57.22;99539.78;4947249;28;20047;-81
2023/07/24 09:52:47;;;;;;;2.35;1.88;;;;;;;26.55;57.86;99540.41;4929519;28;20496;-82
2023/07/24 09:55:29;;;;;;;2.08;1.80;;;;;;;26.71;57.14;99534.25;4947457;28;20035;-82
2023/07/24 09:57:56;;;;;;;1.88;1.67;;;;;;;26.86;55.63;99541.59;4985445;28;20039;-82
2023/07/24 10:00:24;;;;;;;2.95;1.60;;;;;;;26.93;54.85;99537.22;5028732;28;20038;-83
2023/07/24 10:02:50;;;;;;;1.90;1.55;;;;;;;26.75;54.32;99539.19;4981393;28;20066;-82
2023/07/24 10:05:17;;;;;;;2.00;1.60;;;;;;;26.70;55.18;99530.69;4964718;28;20047;-82
2023/07/24 10:07:44;;;;;;;1.95;1.60;;;;;;;26.72;54.94;99525.09;4995482;28;20089;-82
2023/07/24 10:10:11;;;;;;;2.00;1.80;;;;;;;26.90;54.19;99532.09;4978745;28;20070;-82
2023/07/24 10:12:38;;;;;;;2.20;2.00;;;;;;;26.98;53.94;99534.00;4948700;28;20082;-82
2023/07/24 10:15:05;;;;;;;1.95;1.60;;;;;;;26.88;53.54;99527.88;4943117;28;20054;-82
2023/07/24 10:17:36;;;;;;;2.20;1.73;;;;;;;26.95;53.89;99512.66;4958638;28;20043;-82
2023/07/24 10:20:09;;;;;;;5.50;1.95;;;;;;;27.10;54.72;99521.91;4948916;28;20062;-82
2023/07/24 10:22:41;;;;;;;3.93;2.00;;;;;;;27.14;50.61;99520.53;4983606;28;20039;-81
2023/07/24 10:25:09;;;;;;;3.28;1.98;;;;;;;27.31;50.21;99510.56;4952384;28;20034;-81
2023/07/24 10:27:42;;;;;;;4.20;1.95;;;;;;;27.55;48.74;99495.34;4974583;28;20036;-82
2023/07/24 10:30:09;;;;;;;2.17;1.70;;;;;;;27.84;49.91;99503.88;4980684;28;20109;-81
2023/07/24 10:32:47;;;;;;;2.97;2.17;;;;;;;27.89;49.70;99485.19;4962100;28;20134;-82
2023/07/24 10:35:14;;;;;;;2.28;2.08;;;;;;;27.89;48.28;99473.50;4946246;28;20055;-83
2023/07/24 10:37:41;;;;;;;2.85;1.90;;;;;;;27.87;47.27;99465.53;4991793;28;20087;-82
2023/07/24 10:40:19;;;;;;;2.40;2.10;;;;;;;28.03;46.46;99462.78;4948166;28;20092;-84
2023/07/24 10:42:45;;;;;;;3.00;2.38;;;;;;;27.96;46.30;99460.94;4929393;28;20078;-83
2023/07/24 10:45:12;;;;;;;3.58;2.05;;;;;;;27.94;48.59;99454.84;4925044;28;20073;-82
2023/07/24 10:47:39;;;;;;;2.10;1.77;;;;;;;28.05;46.98;99449.88;4946376;28;20050;-82
2023/07/24 10:50:06;;;;;;;2.33;2.08;;;;;;;28.11;46.81;99440.22;4991437;28;20039;-82
2023/07/24 10:52:33;;;;;;;3.30;2.35;;;;;;;28.34;46.16;99444.94;4966430;28;20115;-81
2023/07/24 10:55:02;;;;;;;3.58;2.10;;;;;;;28.50;44.83;99434.84;4985807;28;20122;-82
2023/07/24 10:57:29;;;;;;;2.30;1.92;;;;;;;28.45;44.63;99423.66;4963227;28;20115;-81
2023/07/24 10:59:56;;;;;;;2.72;2.05;;;;;;;28.68;45.09;99418.28;4994723;28;20035;-83
2023/07/24 11:02:23;;;;;;;2.50;2.00;;;;;;;29.04;46.22;99420.50;4966517;28;20034;-82
2023/07/24 11:04:50;;;;;;;3.75;2.33;;;;;;;28.99;44.22;99412.84;5003354;28;20492;-82
2023/07/24 11:07:17;;;;;;;2.67;2.10;;;;;;;28.78;44.11;99416.19;4939697;28;20059;-82
2023/07/24 11:09:44;;;;;;;2.30;1.88;;;;;;;28.45;45.31;99409.22;4962094;28;20088;-81
2023/07/24 11:12:12;;;;;;;3.22;2.42;;;;;;;28.11;45.29;99410.34;4940136;28;20155;-82
2023/07/24 11:14:54;;;;;;;3.65;2.30;;;;;;;27.73;45.93;99403.78;5042493;28;20142;-82
2023/07/24 11:17:20;;;;;;;2.83;2.38;;;;;;;27.87;46.99;99384.09;4967770;28;20492;-83
2023/07/24 11:19:47;;;;;;;2.83;2.20;;;;;;;28.17;45.27;99373.50;4998382;28;20146;-82
2023/07/24 11:22:14;;;;;;;3.00;2.70;;;;;;;28.30;44.09;99371.94;5016711;28;20044;-82
2023/07/24 11:24:46;;;;;;;3.60;2.42;;;;;;;28.71;45.28;99368.16;4974916;28;20047;-82
2023/07/24 11:27:16;;;;;;;2.80;2.25;;;;;;;28.71;44.54;99346.41;4984989;28;20047;-81
2023/07/24 11:29:49;;;;;;;3.75;2.53;;;;;;;28.71;45.76;99343.69;4970533;28;20039;-82